createdAt,value
2022-10-28T00:00:28.028Z,1017.09
2022-10-28T00:01:29.232Z,1017.09
2022-10-28T00:02:26.743Z,1017.11
2022-10-28T00:03:28.900Z,1017.11
2022-10-28T00:04:27.374Z,1017.10
2022-10-28T00:05:27.521Z,1017.08
2022-10-28T00:06:28.674Z,1017.07
2022-10-28T00:07:30.016Z,1017.10
2022-10-28T00:08:29.252Z,1017.08
2022-10-28T00:09:28.732Z,1017.08
2022-10-28T00:10:29.037Z,1017.09
2022-10-28T00:11:30.245Z,1017.05
2022-10-28T00:12:31.536Z,1017.03
2022-10-28T00:13:29.933Z,1017.03
2022-10-28T00:14:30.233Z,1017.03
2022-10-28T00:15:31.396Z,1017.04
2022-10-28T00:16:30.881Z,1017.03
2022-10-28T00:17:32.162Z,1017.01
2022-10-28T00:18:32.385Z,1016.98
2022-10-28T00:19:32.804Z,1016.99
2022-10-28T00:20:32.165Z,1017.03
2022-10-28T00:21:33.376Z,1017.07
2022-10-28T00:22:33.536Z,1017.09
2022-10-28T00:23:33.025Z,1017.05
2022-10-28T00:24:33.340Z,1017.05
2022-10-28T00:25:33.636Z,1017.00
2022-10-28T00:26:33.953Z,1017.01
2022-10-28T00:27:34.283Z,1017.05
2022-10-28T00:28:34.594Z,1016.98
2022-10-28T00:29:36.761Z,1017.00
2022-10-28T00:30:35.150Z,1016.97
2022-10-28T00:31:35.446Z,1016.94
2022-10-28T00:32:37.629Z,1016.92
2022-10-28T00:33:36.008Z,1016.91
2022-10-28T00:34:37.798Z,1016.92
2022-10-28T00:35:36.548Z,1016.94
2022-10-28T00:36:36.867Z,1016.91
2022-10-28T00:37:37.178Z,1016.93
2022-10-28T00:38:37.482Z,1016.90
2022-10-28T00:39:39.673Z,1016.91
2022-10-28T00:40:39.850Z,1016.93
2022-10-28T00:41:38.359Z,1016.98
2022-10-28T00:42:38.670Z,1016.93
2022-10-28T00:43:38.987Z,1016.94
2022-10-28T00:44:41.162Z,1016.95
2022-10-28T00:45:39.548Z,1016.97
2022-10-28T00:46:39.843Z,1016.95
2022-10-28T00:47:40.261Z,1016.98
2022-10-28T00:48:40.445Z,1016.96
2022-10-28T00:49:42.628Z,1016.92
2022-10-28T00:50:41.006Z,1016.88
2022-10-28T00:51:41.307Z,1016.92
2022-10-28T00:52:42.427Z,1016.91
2022-10-28T00:53:41.935Z,1016.93
2022-10-28T00:54:44.124Z,1016.94
2022-10-28T00:55:42.503Z,1016.89
2022-10-28T00:56:42.817Z,1016.90
2022-10-28T00:57:45.066Z,1016.87
2022-10-28T00:58:43.459Z,1016.88
2022-10-28T00:59:45.627Z,1016.86
2022-10-28T01:00:44.007Z,1016.83
2022-10-28T01:01:44.395Z,1016.82
2022-10-28T01:02:45.619Z,1016.77
2022-10-28T01:03:44.813Z,1016.78
2022-10-28T01:04:46.996Z,1016.73
2022-10-28T01:05:45.379Z,1016.80
2022-10-28T01:06:45.685Z,1016.84
2022-10-28T01:07:46.024Z,1016.83
2022-10-28T01:08:46.332Z,1016.84
2022-10-28T01:09:47.510Z,1016.84
2022-10-28T01:10:46.877Z,1016.85
2022-10-28T01:11:47.183Z,1016.88
2022-10-28T01:12:48.444Z,1016.87
2022-10-28T01:13:47.804Z,1016.88
2022-10-28T01:14:50.000Z,1016.89
2022-10-28T01:15:48.361Z,1016.88
2022-10-28T01:16:48.658Z,1016.85
2022-10-28T01:17:49.951Z,1016.90
2022-10-28T01:18:49.308Z,1016.92
2022-10-28T01:19:49.614Z,1016.95
2022-10-28T01:20:51.769Z,1016.95
2022-10-28T01:21:50.151Z,1016.94
2022-10-28T01:22:52.772Z,1016.89
2022-10-28T01:23:50.802Z,1016.86
2022-10-28T01:24:51.111Z,1016.89
2022-10-28T01:25:53.291Z,1016.91
2022-10-28T01:26:53.478Z,1016.88
2022-10-28T01:27:52.896Z,1016.90
2022-10-28T01:28:54.235Z,1016.88
2022-10-28T01:29:52.489Z,1016.83
2022-10-28T01:30:52.787Z,1016.82
2022-10-28T01:31:53.093Z,1016.79
2022-10-28T01:32:54.391Z,1016.82
2022-10-28T01:33:55.557Z,1016.77
2022-10-28T01:34:53.949Z,1016.77
2022-10-28T01:35:56.106Z,1016.76
2022-10-28T01:36:54.538Z,1016.71
2022-10-28T01:37:55.217Z,1016.73
2022-10-28T01:38:55.141Z,1016.70
2022-10-28T01:41:13.060Z,1016.69
2022-10-28T01:42:11.570Z,1016.64
2022-10-28T01:43:11.877Z,1016.62
2022-10-28T01:44:13.118Z,1016.65
2022-10-28T01:45:12.497Z,1016.67
2022-10-28T01:46:14.860Z,1016.71
2022-10-28T01:47:13.099Z,1016.74
2022-10-28T01:48:15.262Z,1016.78
2022-10-28T01:49:15.440Z,1016.72
2022-10-28T01:50:13.963Z,1016.75
2022-10-28T01:51:14.259Z,1016.74
2022-10-28T01:52:14.569Z,1016.75
2022-10-28T01:53:16.746Z,1016.74
2022-10-28T01:54:16.919Z,1016.70
2022-10-28T01:55:15.427Z,1016.70
2022-10-28T01:56:15.740Z,1016.68
2022-10-28T01:57:16.044Z,1016.74
2022-10-28T01:58:18.202Z,1016.78
2022-10-28T01:59:19.335Z,1016.75
2022-10-28T02:00:16.978Z,1016.76
2022-10-28T02:01:19.292Z,1016.75
2022-10-28T02:02:18.523Z,1016.73
2022-10-28T02:03:17.895Z,1016.67
2022-10-28T02:04:19.143Z,1016.65
2022-10-28T02:05:20.371Z,1016.65
2022-10-28T02:06:18.755Z,1016.67
2022-10-28T02:07:19.874Z,1016.66
2022-10-28T02:08:19.365Z,1016.67
2022-10-28T02:09:21.542Z,1016.75
2022-10-28T02:10:19.925Z,1016.74
2022-10-28T02:11:20.232Z,1016.74
2022-10-28T02:12:23.888Z,1016.69
2022-10-28T02:13:20.799Z,1016.66
2022-10-28T02:14:21.996Z,1016.68
2022-10-28T02:15:21.358Z,1016.66
2022-10-28T02:16:23.542Z,1016.66
2022-10-28T02:17:22.751Z,1016.66
2022-10-28T02:18:22.246Z,1016.67
2022-10-28T02:19:24.430Z,1016.69
2022-10-28T02:20:22.809Z,1016.68
2022-10-28T02:21:23.118Z,1016.69
2022-10-28T02:22:24.321Z,1016.66
2022-10-28T02:23:23.683Z,1016.70
2022-10-28T02:24:25.877Z,1016.64
2022-10-28T02:25:24.275Z,1016.62
2022-10-28T02:26:26.455Z,1016.61
2022-10-28T02:27:25.653Z,1016.62
2022-10-28T02:28:25.158Z,1016.60
2022-10-28T02:29:25.463Z,1016.63
2022-10-28T02:30:26.622Z,1016.61
2022-10-28T02:31:25.994Z,1016.61
2022-10-28T02:32:28.259Z,1016.59
2022-10-28T02:33:26.633Z,1016.60
2022-10-28T02:34:26.948Z,1016.57
2022-10-28T02:35:29.104Z,1016.56
2022-10-28T02:36:27.491Z,1016.56
2022-10-28T02:37:30.642Z,1016.58
2022-10-28T02:38:28.044Z,1016.56
2022-10-28T02:39:28.330Z,1016.55
2022-10-28T02:40:30.512Z,1016.53
2022-10-28T02:41:28.890Z,1016.54
2022-10-28T02:42:32.545Z,1016.51
2022-10-28T02:43:29.453Z,1016.48
2022-10-28T02:44:29.770Z,1016.45
2022-10-28T02:45:30.080Z,1016.42
2022-10-28T02:46:30.402Z,1016.41
2022-10-28T02:47:34.044Z,1016.45
2022-10-28T02:48:30.969Z,1016.43
2022-10-28T02:49:31.333Z,1016.43
2022-10-28T02:50:33.521Z,1016.38
2022-10-28T02:51:31.784Z,1016.39
2022-10-28T02:52:35.464Z,1016.40
2022-10-28T02:53:32.369Z,1016.40
2022-10-28T02:54:32.675Z,1016.36
2022-10-28T02:55:34.854Z,1016.31
2022-10-28T02:56:33.236Z,1016.31
2022-10-28T02:57:35.554Z,1016.33
2022-10-28T02:58:33.813Z,1016.35
2022-10-28T02:59:34.117Z,1016.38
2022-10-28T03:00:34.424Z,1016.36
2022-10-28T03:01:34.852Z,1016.42
2022-10-28T03:02:38.164Z,1016.41
2022-10-28T03:03:36.255Z,1016.39
2022-10-28T03:04:37.317Z,1016.43
2022-10-28T03:05:35.937Z,1016.43
2022-10-28T03:06:36.256Z,1016.39
2022-10-28T03:07:37.529Z,1016.43
2022-10-28T03:08:38.762Z,1016.40
2022-10-28T03:09:37.143Z,1016.38
2022-10-28T03:10:37.455Z,1016.42
2022-10-28T03:11:37.761Z,1016.41
2022-10-28T03:12:38.138Z,1016.43
2022-10-28T03:13:40.271Z,1016.39
2022-10-28T03:14:38.649Z,1016.34
2022-10-28T03:15:39.969Z,1016.35
2022-10-28T03:16:39.217Z,1016.33
2022-10-28T03:17:39.550Z,1016.31
2022-10-28T03:18:39.883Z,1016.32
2022-10-28T03:19:42.040Z,1016.28
2022-10-28T03:20:40.429Z,1016.27
2022-10-28T03:21:40.736Z,1016.33
2022-10-28T03:22:41.855Z,1016.32
2022-10-28T03:23:43.267Z,1016.30
2022-10-28T03:24:41.662Z,1016.33
2022-10-28T03:25:41.958Z,1016.29
2022-10-28T03:26:42.277Z,1016.28
2022-10-28T03:27:43.560Z,1016.30
2022-10-28T03:28:44.801Z,1016.31
2022-10-28T03:29:45.761Z,1016.30
2022-10-28T03:30:43.486Z,1016.33
2022-10-28T03:31:43.793Z,1016.35
2022-10-28T03:32:45.129Z,1016.35
2022-10-28T03:33:44.370Z,1016.36
2022-10-28T03:34:47.505Z,1016.33
2022-10-28T03:35:44.904Z,1016.30
2022-10-28T03:36:45.220Z,1016.31
2022-10-28T03:37:46.532Z,1016.30
2022-10-28T03:38:45.773Z,1016.29
2022-10-28T03:39:46.098Z,1016.28
2022-10-28T03:40:47.295Z,1016.23
2022-10-28T03:41:46.673Z,1016.25
2022-10-28T03:42:49.844Z,1016.27
2022-10-28T03:43:47.252Z,1016.21
2022-10-28T03:44:49.433Z,1016.20
2022-10-28T03:45:49.606Z,1016.29
2022-10-28T03:46:48.117Z,1016.25
2022-10-28T03:47:49.441Z,1016.27
2022-10-28T03:48:49.601Z,1016.26
2022-10-28T03:49:50.903Z,1016.24
2022-10-28T03:50:50.185Z,1016.19
2022-10-28T03:51:49.542Z,1016.17
2022-10-28T03:52:53.261Z,1016.14
2022-10-28T03:53:50.168Z,1016.17
2022-10-28T03:54:50.473Z,1016.19
2022-10-28T03:55:50.780Z,1016.16
2022-10-28T03:56:51.088Z,1016.16
2022-10-28T03:57:53.633Z,1016.17
2022-10-28T03:59:51.901Z,1016.16
2022-10-28T04:00:52.328Z,1016.20
2022-10-28T04:01:52.589Z,1016.17
2022-10-28T04:02:55.936Z,1016.12
2022-10-28T04:03:52.977Z,1016.17
2022-10-28T04:04:53.286Z,1016.13
2022-10-28T04:05:53.596Z,1016.13
2022-10-28T04:06:53.903Z,1016.11
2022-10-28T04:07:54.257Z,1016.13
2022-10-28T04:08:56.442Z,1016.13
2022-10-28T04:09:54.701Z,1016.12
2022-10-28T04:10:55.012Z,1016.08
2022-10-28T04:11:56.383Z,1016.08
2022-10-28T04:12:58.488Z,1016.05
2022-10-28T04:13:55.884Z,1016.06
2022-10-28T04:14:56.194Z,1016.01
2022-10-28T04:15:58.375Z,1015.95
2022-10-28T04:16:56.759Z,1015.93
2022-10-28T04:17:58.088Z,1015.94
2022-10-28T04:18:57.324Z,1015.95
2022-10-28T04:20:00.538Z,1015.93
2022-10-28T04:20:59.718Z,1015.92
2022-10-28T04:21:58.230Z,1015.89
2022-10-28T04:22:59.855Z,1015.94
2022-10-28T04:23:58.759Z,1015.96
2022-10-28T04:25:00.945Z,1015.95
2022-10-28T04:25:59.329Z,1015.98
2022-10-28T04:26:59.645Z,1015.97
2022-10-28T04:28:00.966Z,1016.04
2022-10-28T04:29:00.207Z,1016.03
2022-10-28T04:30:02.400Z,1016.03
2022-10-28T04:31:00.771Z,1016.02
2022-10-28T04:32:01.076Z,1016.05
2022-10-28T04:33:02.276Z,1016.02
2022-10-28T04:34:03.630Z,1016.05
2022-10-28T04:35:01.881Z,1015.99
2022-10-28T04:36:02.204Z,1015.97
2022-10-28T04:37:04.379Z,1015.99
2022-10-28T04:38:05.569Z,1015.99
2022-10-28T04:39:03.092Z,1015.97
2022-10-28T04:40:05.278Z,1015.93
2022-10-28T04:41:03.658Z,1015.95
2022-10-28T04:42:03.974Z,1015.96
2022-10-28T04:43:09.663Z,1015.98
2022-10-28T04:44:04.590Z,1015.96
2022-10-28T04:45:06.749Z,1015.95
2022-10-28T04:46:05.134Z,1015.97
2022-10-28T04:47:05.441Z,1015.95
2022-10-28T04:48:08.576Z,1015.96
2022-10-28T04:49:05.975Z,1015.95
2022-10-28T04:50:08.155Z,1015.93
2022-10-28T04:51:06.544Z,1015.93
2022-10-28T04:52:08.793Z,1015.97
2022-10-28T04:53:09.026Z,1015.94
2022-10-28T04:54:09.218Z,1015.95
2022-10-28T04:55:07.736Z,1015.97
2022-10-28T04:56:08.061Z,1015.98
2022-10-28T04:57:09.185Z,1016.03
2022-10-28T04:58:10.622Z,1016.04
2022-10-28T04:59:09.020Z,1016.01
2022-10-28T05:00:09.333Z,1015.97
2022-10-28T05:01:11.570Z,1015.99
2022-10-28T05:02:10.008Z,1015.94
2022-10-28T05:03:12.094Z,1015.90
2022-10-28T05:04:11.337Z,1015.85
2022-10-28T05:05:10.883Z,1015.85
2022-10-28T05:06:11.157Z,1015.87
2022-10-28T05:07:11.459Z,1015.80
2022-10-28T05:08:14.608Z,1015.81
2022-10-28T05:09:12.002Z,1015.78
2022-10-28T05:10:12.318Z,1015.74
2022-10-28T05:11:12.624Z,1015.71
2022-10-28T05:12:12.936Z,1015.69
2022-10-28T05:13:15.109Z,1015.68
2022-10-28T05:14:13.488Z,1015.68
2022-10-28T05:15:13.795Z,1015.64
2022-10-28T05:16:14.108Z,1015.62
2022-10-28T05:17:14.408Z,1015.62
2022-10-28T05:18:16.590Z,1015.61
2022-10-28T05:19:14.969Z,1015.61
2022-10-28T05:20:15.281Z,1015.58
2022-10-28T05:21:15.590Z,1015.63
2022-10-28T05:22:15.892Z,1015.66
2022-10-28T05:23:16.195Z,1015.68
2022-10-28T05:24:18.440Z,1015.70
2022-10-28T05:25:16.817Z,1015.68
2022-10-28T05:26:17.133Z,1015.68
2022-10-28T05:27:17.439Z,1015.66
2022-10-28T05:28:20.591Z,1015.61
2022-10-28T05:29:20.846Z,1015.60
2022-10-28T05:30:18.321Z,1015.59
2022-10-28T05:31:18.619Z,1015.54
2022-10-28T05:32:19.912Z,1015.59
2022-10-28T05:33:21.110Z,1015.58
2022-10-28T05:34:21.399Z,1015.60
2022-10-28T05:35:20.855Z,1015.59
2022-10-28T05:36:20.229Z,1015.59
2022-10-28T05:37:20.532Z,1015.65
2022-10-28T05:38:22.713Z,1015.62
2022-10-28T05:39:22.873Z,1015.61
2022-10-28T05:40:21.383Z,1015.65
2022-10-28T05:41:23.323Z,1015.68
2022-10-28T05:42:21.934Z,1015.63
2022-10-28T05:43:24.111Z,1015.62
2022-10-28T05:44:22.549Z,1015.62
2022-10-28T05:45:22.778Z,1015.59
2022-10-28T05:46:23.093Z,1015.59
2022-10-28T05:47:23.274Z,1015.54
2022-10-28T05:48:25.539Z,1015.55
2022-10-28T05:49:25.632Z,1015.52
2022-10-28T05:50:24.274Z,1015.53
2022-10-28T05:51:24.566Z,1015.52
2022-10-28T05:52:24.895Z,1015.53
2022-10-28T05:53:25.207Z,1015.56
2022-10-28T05:54:27.394Z,1015.58
2022-10-28T05:55:25.786Z,1015.58
2022-10-28T05:56:26.115Z,1015.55
2022-10-28T05:57:26.429Z,1015.55
2022-10-28T05:58:26.748Z,1015.59
2022-10-28T05:59:28.921Z,1015.58
2022-10-28T06:00:27.330Z,1015.56
2022-10-28T06:01:27.679Z,1015.56
2022-10-28T06:02:27.987Z,1015.53
2022-10-28T06:03:31.039Z,1015.58
2022-10-28T06:04:30.489Z,1015.58
2022-10-28T06:05:30.675Z,1015.59
2022-10-28T06:06:29.196Z,1015.52
2022-10-28T06:07:29.533Z,1015.54
2022-10-28T06:08:29.875Z,1015.54
2022-10-28T06:09:30.209Z,1015.47
2022-10-28T06:10:32.395Z,1015.48
2022-10-28T06:11:29.275Z,1015.45
2022-10-28T06:12:29.673Z,1015.46
2022-10-28T06:13:29.845Z,1015.44
2022-10-28T06:14:32.028Z,1015.48
2022-10-28T06:15:30.433Z,1015.42
2022-10-28T06:16:32.624Z,1015.47
2022-10-28T06:17:32.806Z,1015.46
2022-10-28T06:18:31.340Z,1015.47
2022-10-28T06:19:31.710Z,1015.43
2022-10-28T06:20:31.929Z,1015.38
2022-10-28T06:21:32.268Z,1015.41
2022-10-28T06:22:34.445Z,1015.45
2022-10-28T06:23:32.862Z,1015.46
2022-10-28T06:24:35.041Z,1015.53
2022-10-28T06:25:34.301Z,1015.51
2022-10-28T06:26:33.582Z,1015.51
2022-10-28T06:27:33.922Z,1015.48
2022-10-28T06:28:36.108Z,1015.47
2022-10-28T06:29:36.280Z,1015.51
2022-10-28T06:30:35.605Z,1015.51
2022-10-28T06:31:35.137Z,1015.53
2022-10-28T06:32:35.373Z,1015.49
2022-10-28T06:33:35.592Z,1015.49
2022-10-28T06:34:37.826Z,1015.49
2022-10-28T06:35:36.216Z,1015.49
2022-10-28T06:36:36.447Z,1015.46
2022-10-28T06:37:36.680Z,1015.47
2022-10-28T06:38:36.910Z,1015.44
2022-10-28T06:39:39.136Z,1015.44
2022-10-28T06:40:38.232Z,1015.46
2022-10-28T06:41:38.651Z,1015.47
2022-10-28T06:42:37.943Z,1015.48
2022-10-28T06:43:38.179Z,1015.47
2022-10-28T06:44:40.360Z,1015.44
2022-10-28T06:45:38.669Z,1015.45
2022-10-28T06:46:40.419Z,1015.45
2022-10-28T06:47:41.718Z,1015.46
2022-10-28T06:48:40.927Z,1015.43
2022-10-28T06:49:43.104Z,1015.45
2022-10-28T06:50:41.408Z,1015.44
2022-10-28T06:51:41.631Z,1015.47
2022-10-28T06:52:42.003Z,1015.46
2022-10-28T06:53:42.208Z,1015.46
2022-10-28T06:54:44.402Z,1015.45
2022-10-28T06:55:44.654Z,1015.44
2022-10-28T06:56:43.083Z,1015.47
2022-10-28T06:57:44.278Z,1015.48
2022-10-28T06:58:43.563Z,1015.50
2022-10-28T06:59:45.735Z,1015.50
2022-10-28T07:00:44.910Z,1015.51
2022-10-28T07:01:44.357Z,1015.42
2022-10-28T07:02:45.352Z,1015.43
2022-10-28T07:03:44.921Z,1015.41
2022-10-28T07:04:45.151Z,1015.43
2022-10-28T07:05:47.340Z,1015.46
2022-10-28T07:06:47.559Z,1015.47
2022-10-28T07:07:45.895Z,1015.49
2022-10-28T07:08:46.133Z,1015.51
2022-10-28T07:09:48.308Z,1015.49
2022-10-28T07:10:46.609Z,1015.49
2022-10-28T07:11:52.319Z,1015.46
2022-10-28T07:12:48.088Z,1015.52
2022-10-28T07:13:48.992Z,1015.53
2022-10-28T07:14:47.609Z,1015.51
2022-10-28T07:15:49.789Z,1015.49
2022-10-28T07:16:48.209Z,1015.49
2022-10-28T07:17:49.497Z,1015.45
2022-10-28T07:18:48.786Z,1015.43
2022-10-28T07:19:49.008Z,1015.40
2022-10-28T07:20:51.192Z,1015.45
2022-10-28T07:21:49.606Z,1015.40
2022-10-28T07:22:49.940Z,1015.44
2022-10-28T07:23:50.171Z,1015.42
2022-10-28T07:24:50.557Z,1015.47
2022-10-28T07:26:53.078Z,1015.44
2022-10-28T07:27:51.575Z,1015.42
2022-10-28T07:28:51.600Z,1015.43
2022-10-28T07:29:55.235Z,1015.40
2022-10-28T07:30:52.063Z,1015.37
2022-10-28T07:31:52.396Z,1015.34
2022-10-28T07:32:53.062Z,1015.36
2022-10-28T07:33:54.918Z,1015.33
2022-10-28T07:34:56.560Z,1015.36
2022-10-28T07:35:53.479Z,1015.37
2022-10-28T07:36:53.719Z,1015.34
2022-10-28T07:37:53.933Z,1015.34
2022-10-28T07:38:54.287Z,1015.34
2022-10-28T07:39:57.921Z,1015.32
2022-10-28T07:40:54.742Z,1015.33
2022-10-28T07:41:56.897Z,1015.34
2022-10-28T07:42:56.562Z,1015.34
2022-10-28T07:43:58.826Z,1015.37
2022-10-28T07:44:56.744Z,1015.34
2022-10-28T07:45:56.024Z,1015.39
2022-10-28T07:46:58.178Z,1015.37
2022-10-28T07:47:57.432Z,1015.40
2022-10-28T07:48:58.765Z,1015.42
2022-10-28T07:49:57.996Z,1015.42
2022-10-28T07:50:58.160Z,1015.43
2022-10-28T07:51:57.559Z,1015.42
2022-10-28T07:52:58.027Z,1015.41
2022-10-28T07:54:00.115Z,1015.44
2022-10-28T07:54:58.540Z,1015.45
2022-10-28T07:55:58.764Z,1015.42
2022-10-28T07:57:00.139Z,1015.41
2022-10-28T07:58:02.254Z,1015.43
2022-10-28T07:58:59.686Z,1015.41
2022-10-28T08:00:01.881Z,1015.48
2022-10-28T08:01:00.210Z,1015.44
2022-10-28T08:02:00.524Z,1015.44
2022-10-28T08:03:04.034Z,1015.48
2022-10-28T08:04:01.923Z,1015.47
2022-10-28T08:05:02.164Z,1015.43
2022-10-28T08:06:01.434Z,1015.41
2022-10-28T08:07:02.490Z,1015.39
2022-10-28T08:08:03.891Z,1015.40
2022-10-28T08:09:02.198Z,1015.40
2022-10-28T08:10:02.421Z,1015.39
2022-10-28T08:11:02.661Z,1015.31
2022-10-28T08:12:02.895Z,1015.32
2022-10-28T08:13:06.540Z,1015.30
2022-10-28T08:14:03.361Z,1015.32
2022-10-28T08:15:03.770Z,1015.27
2022-10-28T08:16:03.840Z,1015.28
2022-10-28T08:17:06.027Z,1015.33
2022-10-28T08:18:06.244Z,1015.30
2022-10-28T08:19:07.714Z,1015.30
2022-10-28T08:20:04.862Z,1015.26
2022-10-28T08:21:05.094Z,1015.24
2022-10-28T08:22:05.333Z,1015.19
2022-10-28T08:23:07.437Z,1015.24
2022-10-28T08:24:05.872Z,1015.22
2022-10-28T08:25:06.114Z,1015.21
2022-10-28T08:26:06.351Z,1015.22
2022-10-28T08:27:06.592Z,1015.17
2022-10-28T08:28:06.871Z,1015.18
2022-10-28T08:29:07.110Z,1015.14
2022-10-28T08:30:07.339Z,1015.13
2022-10-28T08:31:09.394Z,1015.18
2022-10-28T08:32:07.952Z,1015.19
2022-10-28T08:33:08.300Z,1015.13
2022-10-28T08:34:08.552Z,1015.15
2022-10-28T08:35:08.723Z,1015.10
2022-10-28T08:36:08.952Z,1015.08
2022-10-28T08:37:09.259Z,1015.06
2022-10-28T08:38:11.368Z,1015.07
2022-10-28T08:39:09.798Z,1015.02
2022-10-28T08:40:10.035Z,1015.02
2022-10-28T08:41:10.279Z,1015.02
2022-10-28T08:42:10.516Z,1015.03
2022-10-28T08:43:13.690Z,1015.01
2022-10-28T08:44:12.896Z,1014.91
2022-10-28T08:45:15.648Z,1014.97
2022-10-28T08:46:11.607Z,1015.01
2022-10-28T08:47:13.790Z,1015.01
2022-10-28T08:48:12.300Z,1015.03
2022-10-28T08:49:12.367Z,1015.01
2022-10-28T08:50:14.541Z,1015.02
2022-10-28T08:51:12.852Z,1015.00
2022-10-28T08:52:13.101Z,1014.99
2022-10-28T08:53:13.583Z,1015.03
2022-10-28T08:54:13.615Z,1015.03
2022-10-28T08:55:15.789Z,1015.06
2022-10-28T08:56:14.162Z,1015.08
2022-10-28T08:57:17.892Z,1015.10
2022-10-28T08:58:17.990Z,1015.03
2022-10-28T08:59:14.923Z,1015.03
2022-10-28T09:00:15.186Z,1015.00
2022-10-28T09:01:15.517Z,1015.00
2022-10-28T09:02:15.659Z,1015.02
2022-10-28T09:03:17.866Z,1014.98
2022-10-28T09:04:16.166Z,1015.01
2022-10-28T09:05:18.341Z,1014.98
2022-10-28T09:06:16.640Z,1014.98
2022-10-28T09:07:18.820Z,1015.01
2022-10-28T09:08:17.156Z,1014.97
2022-10-28T09:09:17.372Z,1014.95
2022-10-28T09:10:19.568Z,1014.96
2022-10-28T09:11:17.866Z,1014.95
2022-10-28T09:12:20.042Z,1014.96
2022-10-28T09:13:21.680Z,1014.95
2022-10-28T09:14:18.618Z,1014.93
2022-10-28T09:15:20.802Z,1014.93
2022-10-28T09:16:19.111Z,1014.96
2022-10-28T09:17:21.295Z,1014.94
2022-10-28T09:18:21.482Z,1015.03
2022-10-28T09:19:19.918Z,1015.01
2022-10-28T09:20:20.289Z,1014.99
2022-10-28T09:21:22.363Z,1014.98
2022-10-28T09:22:23.476Z,1014.99
2022-10-28T09:23:22.004Z,1014.95
2022-10-28T09:24:22.212Z,1014.97
2022-10-28T09:25:22.372Z,1014.94
2022-10-28T09:26:21.813Z,1014.92
2022-10-28T09:27:23.992Z,1014.90
2022-10-28T09:28:22.316Z,1014.86
2022-10-28T09:29:22.545Z,1014.82
2022-10-28T09:30:22.789Z,1014.84
2022-10-28T09:31:23.020Z,1014.83
2022-10-28T09:32:23.261Z,1014.86
2022-10-28T09:33:25.444Z,1014.81
2022-10-28T09:34:23.756Z,1014.77
2022-10-28T09:35:24.950Z,1014.79
2022-10-28T09:36:26.174Z,1014.80
2022-10-28T09:37:24.488Z,1014.75
2022-10-28T09:38:26.675Z,1014.69
2022-10-28T09:39:26.928Z,1014.70
2022-10-28T09:40:25.298Z,1014.68
2022-10-28T09:41:25.532Z,1014.72
2022-10-28T09:42:27.732Z,1014.73
2022-10-28T09:43:26.024Z,1014.76
2022-10-28T09:44:28.216Z,1014.77
2022-10-28T09:45:26.522Z,1014.78
2022-10-28T09:46:26.765Z,1014.81
2022-10-28T09:47:27.006Z,1014.79
2022-10-28T09:48:27.245Z,1014.83
2022-10-28T09:49:29.418Z,1014.84
2022-10-28T09:50:29.611Z,1014.86
2022-10-28T09:51:28.024Z,1014.88
2022-10-28T09:52:28.268Z,1014.86
2022-10-28T09:53:30.521Z,1014.84
2022-10-28T09:54:31.698Z,1014.83
2022-10-28T09:55:30.890Z,1014.85
2022-10-28T09:56:29.340Z,1014.86
2022-10-28T09:57:29.636Z,1014.87
2022-10-28T09:58:29.884Z,1014.81
2022-10-28T09:59:32.052Z,1014.83
2022-10-28T10:00:30.409Z,1014.83
2022-10-28T10:01:34.135Z,1014.74
2022-10-28T10:02:31.035Z,1014.76
2022-10-28T10:03:31.242Z,1014.75
2022-10-28T10:04:34.376Z,1014.72
2022-10-28T10:05:33.609Z,1014.74
2022-10-28T10:06:32.194Z,1014.79
2022-10-28T10:07:35.328Z,1014.77
2022-10-28T10:08:33.608Z,1014.84
2022-10-28T10:09:33.039Z,1014.82
2022-10-28T10:10:33.282Z,1014.81
2022-10-28T10:11:34.385Z,1014.88
2022-10-28T10:12:33.803Z,1014.90
2022-10-28T10:13:35.980Z,1014.85
2022-10-28T10:14:35.255Z,1014.86
2022-10-28T10:15:34.547Z,1014.89
2022-10-28T10:16:34.797Z,1014.87
2022-10-28T10:17:35.085Z,1014.84
2022-10-28T10:18:38.222Z,1014.83
2022-10-28T10:19:36.621Z,1014.88
2022-10-28T10:20:35.937Z,1014.82
2022-10-28T10:21:39.037Z,1014.87
2022-10-28T10:22:36.484Z,1014.82
2022-10-28T10:24:37.011Z,1014.81
2022-10-28T10:25:37.248Z,1014.79
2022-10-28T10:26:37.839Z,1014.81
2022-10-28T10:27:38.695Z,1014.75
2022-10-28T10:28:39.951Z,1014.80
2022-10-28T10:29:40.130Z,1014.74
2022-10-28T10:30:39.431Z,1014.79
2022-10-28T10:31:39.822Z,1014.74
2022-10-28T10:32:39.201Z,1014.76
2022-10-28T10:33:41.352Z,1014.75
2022-10-28T10:34:40.582Z,1014.73
2022-10-28T10:35:40.743Z,1014.70
2022-10-28T10:36:40.155Z,1014.69
2022-10-28T10:37:40.472Z,1014.68
2022-10-28T10:38:41.736Z,1014.57
2022-10-28T10:39:42.894Z,1014.60
2022-10-28T10:40:41.335Z,1014.56
2022-10-28T10:41:41.575Z,1014.58
2022-10-28T10:42:57.355Z,1014.57
2022-10-28T10:43:44.936Z,1014.57
2022-10-28T10:44:42.384Z,1014.58
2022-10-28T10:45:42.619Z,1014.53
2022-10-28T10:46:42.865Z,1014.58
2022-10-28T10:47:45.041Z,1014.54
2022-10-28T10:48:44.227Z,1014.52
2022-10-28T10:49:43.643Z,1014.54
2022-10-28T10:50:43.886Z,1014.54
2022-10-28T10:51:44.133Z,1014.55
2022-10-28T10:52:44.377Z,1014.55
2022-10-28T10:53:46.557Z,1014.55
2022-10-28T10:54:44.869Z,1014.55
2022-10-28T10:55:45.103Z,1014.57
2022-10-28T10:56:45.382Z,1014.52
2022-10-28T10:57:45.988Z,1014.58
2022-10-28T10:58:47.782Z,1014.54
2022-10-28T10:59:46.215Z,1014.52
2022-10-28T11:00:46.450Z,1014.57
2022-10-28T11:01:47.739Z,1014.49
2022-10-28T11:02:48.296Z,1014.52
2022-10-28T11:03:49.201Z,1014.52
2022-10-28T11:04:49.353Z,1014.51
2022-10-28T11:05:51.106Z,1014.52
2022-10-28T11:06:49.135Z,1014.55
2022-10-28T11:07:48.430Z,1014.58
2022-10-28T11:08:50.613Z,1014.64
2022-10-28T11:09:48.933Z,1014.61
2022-10-28T11:10:49.172Z,1014.57
2022-10-28T11:11:49.413Z,1014.54
2022-10-28T11:12:51.725Z,1014.65
2022-10-28T11:13:51.771Z,1014.69
2022-10-28T11:14:50.203Z,1014.68
2022-10-28T11:15:50.451Z,1014.66
2022-10-28T11:16:50.695Z,1014.68
2022-10-28T11:17:51.163Z,1014.72
2022-10-28T11:18:53.107Z,1014.66
2022-10-28T11:19:51.421Z,1014.67
2022-10-28T11:20:51.665Z,1014.71
2022-10-28T11:21:51.903Z,1014.68
2022-10-28T11:22:54.387Z,1014.59
2022-10-28T11:23:52.437Z,1014.58
2022-10-28T11:24:52.676Z,1014.60
2022-10-28T11:25:52.920Z,1014.58
2022-10-28T11:26:53.159Z,1014.56
2022-10-28T11:27:57.531Z,1014.58
2022-10-28T11:28:53.707Z,1014.62
2022-10-28T11:29:55.890Z,1014.60
2022-10-28T11:30:54.308Z,1014.56
2022-10-28T11:31:54.430Z,1014.54
2022-10-28T11:33:08.259Z,1014.58
2022-10-28T11:33:55.900Z,1014.56
2022-10-28T11:34:57.088Z,1014.54
2022-10-28T11:35:55.517Z,1014.61
2022-10-28T11:36:55.759Z,1014.56
2022-10-28T11:37:57.924Z,1014.52
2022-10-28T11:38:58.155Z,1014.56
2022-10-28T11:39:58.338Z,1014.57
2022-10-28T11:40:56.771Z,1014.49
2022-10-28T11:41:57.022Z,1014.53
2022-10-28T11:42:59.196Z,1014.53
2022-10-28T11:44:04.780Z,1014.51
2022-10-28T11:44:58.825Z,1014.42
2022-10-28T11:45:58.115Z,1014.53
2022-10-28T11:47:02.484Z,1014.47
2022-10-28T11:48:00.456Z,1014.54
2022-10-28T11:49:00.798Z,1014.47
2022-10-28T11:49:59.272Z,1014.43
2022-10-28T11:50:59.489Z,1014.37
2022-10-28T11:51:59.717Z,1014.35
2022-10-28T11:52:59.957Z,1014.42
2022-10-28T11:54:02.135Z,1014.37
2022-10-28T11:55:00.445Z,1014.45
2022-10-28T11:56:00.683Z,1014.43
2022-10-28T11:57:00.930Z,1014.62
2022-10-28T11:58:02.110Z,1014.46
2022-10-28T11:59:03.410Z,1014.42
2022-10-28T12:00:01.707Z,1014.38
2022-10-28T12:01:01.963Z,1014.36
2022-10-28T12:02:03.248Z,1014.35
2022-10-28T12:03:04.502Z,1014.34
2022-10-28T12:04:04.576Z,1014.36
2022-10-28T12:05:03.070Z,1014.34
2022-10-28T12:06:03.313Z,1014.39
2022-10-28T12:07:03.563Z,1014.39
2022-10-28T12:08:04.781Z,1014.42
2022-10-28T12:10:04.345Z,1014.33
2022-10-28T12:11:04.593Z,1014.32
2022-10-28T12:12:04.829Z,1014.26
2022-10-28T12:13:05.077Z,1014.23
2022-10-28T12:14:06.277Z,1014.19